Terminal Aerodrome Forecast
Issued by NWS Charleston, SC

Home | Current Version | Previous Version | Text Only | Print | Product List | Glossary On
Versions: 1 2 3 4 5 6 7 8 9 10 11 12 13 14 15 16 17
000
FTUS42 KCHS 272300
TAFCHS
TAF
KCHS 272340Z 2800/2824 24008KT P6SM BKN200
     FM281400 26013G19KT P6SM FEW040 SCT200
     FM281800 25016G23KT P6SM SCT050 BKN200
     FM282100 24015G22KT P6SM VCTS BKN050CB=

USA.gov is the U.S. government's official web portal to all federal, state and local government web resources and services.